Time;durP1;ratioP1;P1;durP2;ratioP2;P2;SDS_P1;SDS_P2;PMS_P1;PMS_P2;Temp;Humidity;BMP_temperature;BMP_pressure;BME280_temperature;BME280_humidity;BME280_pressure;Samples;Min_cycle;Max_cycle;Signal;HPM_P1;HPM_P2
2022/04/06 00:00:22;;;;;;;20.27;10.63;;;;;;;;;;4953380;28;20045;-35
2022/04/06 00:02:48;;;;;;;18.15;10.43;;;;;;;;;;4953735;28;20031;-35
2022/04/06 00:05:13;;;;;;;26.25;11.43;;;;;;;;;;4953752;28;20043;-34
2022/04/06 00:07:40;;;;;;;18.17;11.07;;;;;;;;;;4953331;28;20027;-35
2022/04/06 00:10:07;;;;;;;18.55;10.50;;;;;;;;;;4953275;28;20039;-38
2022/04/06 00:12:33;;;;;;;19.70;12.52;;;;;;;;;;4953592;28;20142;-35
2022/04/06 00:14:58;;;;;;;19.60;9.77;;;;;;;;;;4953604;28;20122;-35
2022/04/06 00:17:24;;;;;;;20.17;10.80;;;;;;;;;;4953340;28;20103;-34
2022/04/06 00:19:49;;;;;;;17.63;10.73;;;;;;;;;;4953161;28;20042;-34
2022/04/06 00:22:15;;;;;;;21.60;10.88;;;;;;;;;;4953243;28;20410;-35
2022/04/06 00:24:40;;;;;;;26.42;12.35;;;;;;;;;;4953134;28;20032;-35
2022/04/06 00:27:06;;;;;;;18.77;10.80;;;;;;;;;;4953499;28;20019;-35
2022/04/06 00:29:31;;;;;;;18.73;11.40;;;;;;;;;;4967745;28;20063;-35
2022/04/06 00:31:56;;;;;;;24.38;11.63;;;;;;;;;;4970107;28;20102;-35
2022/04/06 00:35:28;;;;;;;20.27;10.27;;;;;;;;;;4957176;28;20116;-35
2022/04/06 00:37:07;;;;;;;17.25;10.30;;;;;;;;;;4957017;28;20649;-35
2022/04/06 00:39:33;;;;;;;19.55;10.88;;;;;;;;;;4956976;28;20090;-35
2022/04/06 00:41:58;;;;;;;19.95;11.38;;;;;;;;;;4957050;28;20039;-35
2022/04/06 00:44:23;;;;;;;19.85;11.05;;;;;;;;;;4956835;28;20062;-35
2022/04/06 00:46:49;;;;;;;19.90;8.88;;;;;;;;;;4956866;29;20031;-35
2022/04/06 00:49:14;;;;;;;19.40;11.48;;;;;;;;;;4956740;28;20039;-34
2022/04/06 00:51:42;;;;;;;18.55;11.88;;;;;;;;;;4956754;28;20040;-35
2022/04/06 00:54:07;;;;;;;19.15;10.55;;;;;;;;;;4957114;28;20110;-35
2022/04/06 00:56:33;;;;;;;20.42;10.90;;;;;;;;;;4956914;28;20423;-34
2022/04/06 00:58:59;;;;;;;20.65;11.63;;;;;;;;;;4956635;28;20031;-35
2022/04/06 01:01:24;;;;;;;17.15;10.38;;;;;;;;;;4956968;28;20039;-35
2022/04/06 01:03:50;;;;;;;16.88;11.00;;;;;;;;;;4956856;28;20504;-35
2022/04/06 01:06:15;;;;;;;20.10;11.25;;;;;;;;;;4956631;28;20486;-35
2022/04/06 01:08:41;;;;;;;31.05;11.13;;;;;;;;;;4956699;28;20022;-35
2022/04/06 01:11:06;;;;;;;22.77;11.50;;;;;;;;;;4956594;28;20035;-35
2022/04/06 01:13:32;;;;;;;22.77;12.27;;;;;;;;;;4956336;29;20023;-35
2022/04/06 01:15:57;;;;;;;18.77;9.85;;;;;;;;;;4956509;28;20039;-35
2022/04/06 01:18:23;;;;;;;17.38;10.02;;;;;;;;;;4956525;28;20027;-35
2022/04/06 01:20:48;;;;;;;19.65;10.90;;;;;;;;;;4956225;28;20791;-36
2022/04/06 01:23:13;;;;;;;20.92;11.55;;;;;;;;;;4956337;29;20363;-35
2022/04/06 01:25:40;;;;;;;19.92;11.13;;;;;;;;;;4956140;28;20067;-35
2022/04/06 01:28:07;;;;;;;20.40;10.88;;;;;;;;;;4956242;28;20058;-35
2022/04/06 01:30:32;;;;;;;18.98;10.82;;;;;;;;;;4956044;28;20039;-35
2022/04/06 01:32:57;;;;;;;18.23;11.02;;;;;;;;;;4956371;28;20367;-35
2022/04/06 01:35:23;;;;;;;20.17;10.68;;;;;;;;;;4955940;28;20746;-35
2022/04/06 01:37:49;;;;;;;17.85;10.02;;;;;;;;;;4954725;28;20046;-35
2022/04/06 01:40:14;;;;;;;22.40;9.82;;;;;;;;;;4955878;28;20067;-35
2022/04/06 01:42:40;;;;;;;23.98;11.98;;;;;;;;;;4969373;28;20467;-35
2022/04/06 01:45:05;;;;;;;19.73;11.40;;;;;;;;;;4956127;28;20106;-35
2022/04/06 01:47:31;;;;;;;21.70;11.77;;;;;;;;;;4955803;28;20045;-35
2022/04/06 01:52:40;;;;;;;19.70;10.27;;;;;;;;;;4956021;28;20106;-34
2022/04/06 01:55:07;;;;;;;23.92;10.63;;;;;;;;;;4955998;28;20462;-35
2022/04/06 01:57:33;;;;;;;17.90;9.88;;;;;;;;;;4955584;28;20031;-35
2022/04/06 01:59:58;;;;;;;19.13;10.73;;;;;;;;;;4955855;28;20031;-34
2022/04/06 02:02:25;;;;;;;20.10;10.02;;;;;;;;;;4955598;28;20114;-35
2022/04/06 02:04:50;;;;;;;22.90;9.85;;;;;;;;;;4955473;28;20545;-35
2022/04/06 02:07:16;;;;;;;20.30;10.93;;;;;;;;;;4955502;28;20031;-35
2022/04/06 02:09:41;;;;;;;16.13;9.50;;;;;;;;;;4955192;28;20035;-35
2022/04/06 02:12:08;;;;;;;17.65;10.10;;;;;;;;;;4955470;29;20046;-35
2022/04/06 02:14:34;;;;;;;18.45;10.93;;;;;;;;;;4955304;28;20094;-35
2022/04/06 02:17:07;;;;;;;17.77;10.00;;;;;;;;;;4970092;28;20123;-35
2022/04/06 02:19:34;;;;;;;21.50;11.60;;;;;;;;;;4969983;28;20389;-35
2022/04/06 02:21:59;;;;;;;18.00;10.70;;;;;;;;;;4955262;28;20027;-35
2022/04/06 02:24:24;;;;;;;19.48;10.18;;;;;;;;;;4955234;28;20093;-35
2022/04/06 02:26:50;;;;;;;22.42;10.95;;;;;;;;;;4955054;28;20090;-35
2022/04/06 02:29:15;;;;;;;21.80;10.57;;;;;;;;;;4955046;28;20051;-35
2022/04/06 02:31:41;;;;;;;18.33;9.95;;;;;;;;;;4955268;28;20020;-35
2022/04/06 02:34:06;;;;;;;18.08;10.20;;;;;;;;;;4955316;28;20085;-35
2022/04/06 02:36:32;;;;;;;26.05;11.77;;;;;;;;;;4954983;28;20034;-35
2022/04/06 02:38:59;;;;;;;18.00;9.57;;;;;;;;;;4954867;28;20038;-35
2022/04/06 02:41:25;;;;;;;18.88;9.02;;;;;;;;;;4954849;28;20157;-35
2022/04/06 02:43:50;;;;;;;17.13;9.30;;;;;;;;;;4954648;28;20133;-35
2022/04/06 02:46:16;;;;;;;18.95;9.65;;;;;;;;;;4969691;28;20367;-34
2022/04/06 02:48:41;;;;;;;19.50;11.18;;;;;;;;;;4954604;28;20028;-35
2022/04/06 02:51:07;;;;;;;23.08;11.23;;;;;;;;;;4954597;28;20601;-35
2022/04/06 02:53:32;;;;;;;22.30;10.05;;;;;;;;;;4954518;28;20041;-34
2022/04/06 02:55:57;;;;;;;22.63;10.57;;;;;;;;;;4954460;28;20027;-35
2022/04/06 02:58:23;;;;;;;21.13;10.70;;;;;;;;;;4954385;28;20046;-35
2022/04/06 03:00:48;;;;;;;18.65;11.32;;;;;;;;;;4954558;28;20054;-35
2022/04/06 03:03:14;;;;;;;18.60;10.18;;;;;;;;;;4954580;28;20031;-35
2022/04/06 03:05:39;;;;;;;19.45;10.32;;;;;;;;;;4954284;28;20043;-35
2022/04/06 03:08:05;;;;;;;13.60;8.75;;;;;;;;;;4954376;28;20082;-35
2022/04/06 03:10:31;;;;;;;20.92;10.88;;;;;;;;;;4954558;28;20031;-34
2022/04/06 03:12:56;;;;;;;16.23;10.10;;;;;;;;;;4969022;28;20035;-35
2022/04/06 03:15:22;;;;;;;19.52;11.02;;;;;;;;;;4954244;28;20074;-35
2022/04/06 03:17:47;;;;;;;22.02;10.35;;;;;;;;;;4954195;28;20031;-35
2022/04/06 03:20:13;;;;;;;18.77;10.23;;;;;;;;;;4954367;28;20023;-35
2022/04/06 03:22:38;;;;;;;22.17;10.25;;;;;;;;;;4954094;28;20035;-35
2022/04/06 03:25:04;;;;;;;19.02;10.10;;;;;;;;;;4954404;28;20074;-35
2022/04/06 03:27:30;;;;;;;17.02;9.35;;;;;;;;;;4968827;28;20035;-35
2022/04/06 03:29:55;;;;;;;19.33;11.00;;;;;;;;;;4953801;28;20170;-35
2022/04/06 03:32:20;;;;;;;19.25;9.98;;;;;;;;;;4953994;28;20125;-35
2022/04/06 03:34:46;;;;;;;21.33;9.63;;;;;;;;;;4954058;28;20030;-35
2022/04/06 03:37:11;;;;;;;20.00;10.45;;;;;;;;;;4954145;28;20486;-35
2022/04/06 03:39:37;;;;;;;22.45;9.88;;;;;;;;;;4953769;29;20386;-34
2022/04/06 03:42:02;;;;;;;18.45;11.23;;;;;;;;;;4953740;28;20355;-35
2022/04/06 03:44:28;;;;;;;27.38;10.43;;;;;;;;;;4953709;28;20102;-35
2022/04/06 03:46:53;;;;;;;19.92;11.05;;;;;;;;;;4953693;28;20098;-34
2022/04/06 03:49:19;;;;;;;15.52;8.90;;;;;;;;;;4953623;28;20668;-35
2022/04/06 03:51:45;;;;;;;20.52;10.82;;;;;;;;;;4953563;28;20038;-35
2022/04/06 03:54:10;;;;;;;21.13;10.57;;;;;;;;;;4953907;28;20027;-35
2022/04/06 03:56:37;;;;;;;24.40;11.30;;;;;;;;;;4953484;28;20518;-35
2022/04/06 03:59:04;;;;;;;19.80;11.15;;;;;;;;;;4953551;28;20037;-35
2022/04/06 04:01:30;;;;;;;20.25;10.65;;;;;;;;;;4953502;28;20035;-35
2022/04/06 04:03:55;;;;;;;24.60;13.10;;;;;;;;;;4953433;28;20034;-34
2022/04/06 04:06:21;;;;;;;20.63;10.88;;;;;;;;;;4952779;28;20067;-35
2022/04/06 04:08:46;;;;;;;20.33;9.93;;;;;;;;;;4953265;28;20023;-35
2022/04/06 04:11:12;;;;;;;23.10;11.70;;;;;;;;;;4953659;28;20035;-35
2022/04/06 04:13:37;;;;;;;26.80;10.80;;;;;;;;;;4953388;28;20070;-34
2022/04/06 04:16:03;;;;;;;20.08;11.35;;;;;;;;;;4953620;28;20393;-35
2022/04/06 04:18:28;;;;;;;21.33;9.80;;;;;;;;;;4953596;28;20082;-35
2022/04/06 04:23:38;;;;;;;18.42;9.50;;;;;;;;;;4953503;28;20055;-35
2022/04/06 04:26:03;;;;;;;21.73;12.10;;;;;;;;;;4953306;28;20058;-35
2022/04/06 04:28:28;;;;;;;22.40;10.73;;;;;;;;;;4953232;28;20451;-35
2022/04/06 04:30:54;;;;;;;20.55;9.40;;;;;;;;;;4953318;28;20458;-34
2022/04/06 04:33:19;;;;;;;19.70;10.15;;;;;;;;;;4953473;28;20110;-35
2022/04/06 04:35:45;;;;;;;16.77;10.35;;;;;;;;;;4953406;28;20078;-40
2022/04/06 04:38:11;;;;;;;21.55;10.82;;;;;;;;;;4953000;28;20433;-35
2022/04/06 04:40:37;;;;;;;17.70;9.82;;;;;;;;;;4953105;28;20031;-40
2022/04/06 04:43:03;;;;;;;14.40;9.93;;;;;;;;;;4952927;28;20107;-35
2022/04/06 04:45:28;;;;;;;16.63;10.07;;;;;;;;;;4953112;28;20027;-35
2022/04/06 04:47:54;;;;;;;16.98;8.55;;;;;;;;;;4952994;28;20028;-35
2022/04/06 04:50:19;;;;;;;19.77;10.18;;;;;;;;;;4952958;28;20118;-34
2022/04/06 04:52:45;;;;;;;21.75;11.02;;;;;;;;;;4952972;28;20039;-35
2022/04/06 04:55:10;;;;;;;20.33;10.93;;;;;;;;;;4953344;28;20466;-34
2022/04/06 04:57:36;;;;;;;19.83;10.80;;;;;;;;;;4953003;28;20028;-35
2022/04/06 05:00:01;;;;;;;19.92;9.88;;;;;;;;;;4952831;28;20513;-35
2022/04/06 05:02:27;;;;;;;16.45;9.25;;;;;;;;;;4952774;28;20074;-34
2022/04/06 05:04:53;;;;;;;18.58;10.13;;;;;;;;;;4953016;28;20457;-34
2022/04/06 05:07:19;;;;;;;20.50;10.05;;;;;;;;;;4952901;28;20027;-34
2022/04/06 05:09:44;;;;;;;24.38;11.52;;;;;;;;;;4952736;28;20071;-34
2022/04/06 05:12:10;;;;;;;18.30;10.07;;;;;;;;;;4952867;28;20059;-35
2022/04/06 05:14:35;;;;;;;31.00;10.88;;;;;;;;;;4952708;28;20482;-34
2022/04/06 05:17:01;;;;;;;23.58;11.38;;;;;;;;;;4951977;28;20031;-35
2022/04/06 05:19:26;;;;;;;19.48;10.75;;;;;;;;;;4956407;28;20114;-35
2022/04/06 05:21:52;;;;;;;24.27;13.15;;;;;;;;;;4956274;28;20031;-35
2022/04/06 05:24:17;;;;;;;22.63;13.98;;;;;;;;;;4956632;28;20058;-35
2022/04/06 05:26:43;;;;;;;22.45;12.57;;;;;;;;;;4956428;29;20031;-35
2022/04/06 05:29:08;;;;;;;24.95;12.30;;;;;;;;;;4956119;28;20117;-34
2022/04/06 05:31:35;;;;;;;28.23;12.57;;;;;;;;;;4956214;28;20077;-35
2022/04/06 05:34:00;;;;;;;20.88;12.18;;;;;;;;;;4956077;28;20039;-35
2022/04/06 05:36:28;;;;;;;20.42;11.25;;;;;;;;;;4956063;28;20086;-36
2022/04/06 05:38:54;;;;;;;20.30;11.07;;;;;;;;;;4955930;28;20046;-35
2022/04/06 05:41:20;;;;;;;22.92;11.02;;;;;;;;;;4956270;28;20068;-35
2022/04/06 05:43:45;;;;;;;22.35;12.43;;;;;;;;;;4955774;29;20650;-35
2022/04/06 05:46:11;;;;;;;22.65;12.55;;;;;;;;;;4956170;28;20430;-35
2022/04/06 05:48:36;;;;;;;21.40;11.70;;;;;;;;;;4955791;28;20470;-35
2022/04/06 05:51:02;;;;;;;26.02;13.85;;;;;;;;;;4970526;28;20054;-35
2022/04/06 05:53:28;;;;;;;18.67;10.77;;;;;;;;;;4955837;28;20098;-35
2022/04/06 05:55:53;;;;;;;28.73;13.90;;;;;;;;;;4955690;28;20114;-35
2022/04/06 05:58:18;;;;;;;27.95;12.27;;;;;;;;;;4970517;28;20035;-35
2022/04/06 06:00:44;;;;;;;23.95;12.07;;;;;;;;;;4955948;28;20126;-35
2022/04/06 06:03:09;;;;;;;25.27;12.80;;;;;;;;;;4955535;28;20484;-34
2022/04/06 06:05:35;;;;;;;32.20;15.18;;;;;;;;;;4955544;28;20031;-35
2022/04/06 06:08:00;;;;;;;25.55;13.52;;;;;;;;;;4955456;28;20034;-35
2022/04/06 06:10:26;;;;;;;18.50;11.80;;;;;;;;;;4955403;28;20043;-34
2022/04/06 06:12:52;;;;;;;26.25;13.55;;;;;;;;;;4955678;28;20363;-35
2022/04/06 06:15:17;;;;;;;27.02;14.23;;;;;;;;;;4955401;28;20027;-35
2022/04/06 06:17:42;;;;;;;28.67;14.80;;;;;;;;;;4955472;28;20484;-35
2022/04/06 06:20:08;;;;;;;22.33;14.95;;;;;;;;;;4955402;28;20057;-35
2022/04/06 06:22:34;;;;;;;26.25;12.93;;;;;;;;;;4955298;28;20035;-34
2022/04/06 06:24:59;;;;;;;28.33;13.65;;;;;;;;;;4970222;28;20042;-35
2022/04/06 06:27:25;;;;;;;33.88;14.40;;;;;;;;;;4955501;28;20082;-35
2022/04/06 06:29:50;;;;;;;24.85;13.63;;;;;;;;;;4954170;28;20073;-35
2022/04/06 06:32:16;;;;;;;33.45;14.73;;;;;;;;;;4955047;28;20019;-35
2022/04/06 06:34:42;;;;;;;29.08;13.75;;;;;;;;;;4954954;28;20089;-35
2022/04/06 06:37:08;;;;;;;25.50;13.43;;;;;;;;;;4955040;28;20111;-35
2022/04/06 06:39:33;;;;;;;23.40;14.30;;;;;;;;;;4955152;28;20041;-35
2022/04/06 06:41:59;;;;;;;29.40;14.70;;;;;;;;;;4969720;28;20062;-35
2022/04/06 06:44:24;;;;;;;30.08;13.73;;;;;;;;;;4954783;28;20098;-34
2022/04/06 06:46:50;;;;;;;31.52;15.35;;;;;;;;;;4954689;28;20031;-35
2022/04/06 06:49:16;;;;;;;24.83;13.32;;;;;;;;;;4969524;28;20093;-34
2022/04/06 06:51:41;;;;;;;27.98;14.65;;;;;;;;;;4954989;28;20019;-35
2022/04/06 06:54:07;;;;;;;36.47;14.10;;;;;;;;;;4954677;28;20078;-34
2022/04/06 06:56:33;;;;;;;25.92;14.27;;;;;;;;;;4954654;28;20019;-35
2022/04/06 06:58:58;;;;;;;23.45;13.60;;;;;;;;;;4954743;28;20027;-35
2022/04/06 07:01:24;;;;;;;25.98;13.90;;;;;;;;;;4953220;28;20024;-34
2022/04/06 07:03:50;;;;;;;25.77;11.43;;;;;;;;;;4954485;28;20038;-35
2022/04/06 07:06:16;;;;;;;30.25;15.30;;;;;;;;;;4954503;28;20021;-35
2022/04/06 07:08:41;;;;;;;23.10;13.13;;;;;;;;;;4954180;28;20038;-35
2022/04/06 07:11:07;;;;;;;27.58;12.82;;;;;;;;;;4954733;28;20492;-35
2022/04/06 07:13:32;;;;;;;21.15;12.30;;;;;;;;;;4954662;28;20027;-35
2022/04/06 07:15:58;;;;;;;22.02;11.77;;;;;;;;;;4954149;28;20038;-35
2022/04/06 07:18:23;;;;;;;30.58;13.10;;;;;;;;;;4954217;28;20031;-35
2022/04/06 07:20:49;;;;;;;24.70;12.80;;;;;;;;;;4954107;28;20050;-35
2022/04/06 07:23:14;;;;;;;29.45;13.68;;;;;;;;;;4954319;28;20110;-35
2022/04/06 07:25:40;;;;;;;25.15;12.07;;;;;;;;;;4954423;28;20460;-35
2022/04/06 07:28:06;;;;;;;20.90;12.13;;;;;;;;;;4954134;28;20027;-35
2022/04/06 07:30:31;;;;;;;26.48;13.05;;;;;;;;;;4954199;28;20382;-35
2022/04/06 07:32:58;;;;;;;23.08;12.45;;;;;;;;;;4953916;28;20537;-35
2022/04/06 07:35:23;;;;;;;27.45;13.93;;;;;;;;;;4954208;28;20414;-35
2022/04/06 07:37:50;;;;;;;30.58;14.77;;;;;;;;;;4954052;28;20039;-35
2022/04/06 07:40:17;;;;;;;28.88;14.02;;;;;;;;;;4953933;28;20023;-35
2022/04/06 07:42:43;;;;;;;29.33;14.25;;;;;;;;;;4953518;28;20039;-35
2022/04/06 07:45:10;;;;;;;32.25;15.00;;;;;;;;;;4954100;28;20039;-34
2022/04/06 07:47:37;;;;;;;33.22;14.70;;;;;;;;;;4953995;28;20035;-35
2022/04/06 07:50:04;;;;;;;24.55;12.43;;;;;;;;;;4953557;28;20386;-35
2022/04/06 07:52:30;;;;;;;32.65;14.05;;;;;;;;;;4953724;28;20035;-35
2022/04/06 07:54:56;;;;;;;36.55;14.00;;;;;;;;;;4953634;28;20027;-35
2022/04/06 07:57:22;;;;;;;29.30;13.98;;;;;;;;;;4953824;28;20038;-35
2022/04/06 07:59:48;;;;;;;32.55;15.75;;;;;;;;;;4953741;28;20118;-35
2022/04/06 08:02:13;;;;;;;34.83;14.30;;;;;;;;;;4968732;28;20159;-35
2022/04/06 08:04:39;;;;;;;28.02;13.90;;;;;;;;;;4953437;28;20031;-35
2022/04/06 08:07:04;;;;;;;31.95;15.90;;;;;;;;;;4953526;28;20628;-35
2022/04/06 08:09:30;;;;;;;29.45;14.77;;;;;;;;;;4953575;28;20462;-35
2022/04/06 08:11:55;;;;;;;28.13;15.40;;;;;;;;;;4953291;28;20027;-35
2022/04/06 08:14:21;;;;;;;31.40;16.42;;;;;;;;;;4953681;28;20061;-35
2022/04/06 08:16:47;;;;;;;26.65;14.65;;;;;;;;;;4953561;28;20593;-35
2022/04/06 08:19:12;;;;;;;28.90;14.18;;;;;;;;;;4951912;28;20458;-35
2022/04/06 08:21:37;;;;;;;38.13;15.18;;;;;;;;;;4968436;28;20025;-35
2022/04/06 08:24:03;;;;;;;27.25;14.18;;;;;;;;;;4953226;28;20031;-35
2022/04/06 08:26:29;;;;;;;31.40;14.77;;;;;;;;;;4968026;28;20115;-35
2022/04/06 08:28:54;;;;;;;28.75;15.02;;;;;;;;;;4953060;28;20051;-35
2022/04/06 08:31:20;;;;;;;34.03;14.48;;;;;;;;;;4953565;28;20078;-35
2022/04/06 08:33:46;;;;;;;29.98;14.48;;;;;;;;;;4953365;28;20503;-35
2022/04/06 08:36:12;;;;;;;29.38;14.40;;;;;;;;;;4953216;28;20020;-34
2022/04/06 08:38:37;;;;;;;32.03;14.57;;;;;;;;;;4953420;28;20082;-35
2022/04/06 08:41:03;;;;;;;34.22;15.40;;;;;;;;;;4952934;28;20035;-35
2022/04/06 08:43:28;;;;;;;29.98;13.30;;;;;;;;;;4953126;28;20063;-35
2022/04/06 08:45:54;;;;;;;28.52;15.43;;;;;;;;;;4953007;28;20548;-35
2022/04/06 08:48:20;;;;;;;28.60;14.10;;;;;;;;;;4953210;28;20537;-35
2022/04/06 08:50:45;;;;;;;30.85;13.48;;;;;;;;;;4953223;28;20051;-35
2022/04/06 08:53:12;;;;;;;24.35;12.50;;;;;;;;;;4955356;28;20381;-34
2022/04/06 08:55:38;;;;;;;28.67;13.38;;;;;;;;;;4957061;28;20038;-35
2022/04/06 08:58:04;;;;;;;33.80;15.10;;;;;;;;;;4956635;28;20015;-35
2022/04/06 09:00:30;;;;;;;35.03;15.23;;;;;;;;;;4956757;28;20535;-35
2022/04/06 09:02:56;;;;;;;25.60;12.18;;;;;;;;;;4956609;28;20468;-35
2022/04/06 09:05:23;;;;;;;30.83;14.25;;;;;;;;;;4956741;28;20061;-35
2022/04/06 09:07:51;;;;;;;33.17;15.95;;;;;;;;;;4956706;28;20046;-34
2022/04/06 09:10:34;;;;;;;28.67;13.35;;;;;;;;;;4956428;28;20071;-35
2022/04/06 09:13:20;;;;;;;30.10;13.87;;;;;;;;;;4956533;28;20090;-36
2022/04/06 09:15:46;;;;;;;31.33;15.65;;;;;;;;;;4956649;28;20644;-35
2022/04/06 09:18:12;;;;;;;31.38;15.57;;;;;;;;;;4956438;28;20027;-35
2022/04/06 09:20:38;;;;;;;38.35;16.00;;;;;;;;;;4956410;28;20470;-35
2022/04/06 09:23:05;;;;;;;38.85;15.98;;;;;;;;;;4956227;28;20027;-35
2022/04/06 09:25:34;;;;;;;27.92;13.50;;;;;;;;;;4956288;28;20482;-35
2022/04/06 09:28:05;;;;;;;33.15;15.48;;;;;;;;;;4956106;28;20032;-35
2022/04/06 09:30:32;;;;;;;41.90;17.40;;;;;;;;;;4956353;28;20065;-35
2022/04/06 09:33:01;;;;;;;38.03;14.93;;;;;;;;;;4956411;28;20027;-35
2022/04/06 09:35:28;;;;;;;26.98;14.00;;;;;;;;;;4956430;28;20151;-35
2022/04/06 09:38:12;;;;;;;35.30;15.27;;;;;;;;;;4955873;28;20039;-35
2022/04/06 09:40:38;;;;;;;35.65;14.30;;;;;;;;;;4956097;28;20039;-35
2022/04/06 09:43:04;;;;;;;32.78;15.48;;;;;;;;;;4955937;28;20410;-35
2022/04/06 09:48:14;;;;;;;31.65;15.23;;;;;;;;;;4955887;28;20050;-35
2022/04/06 09:50:42;;;;;;;28.95;14.93;;;;;;;;;;4955733;28;20466;-35
2022/04/06 09:53:08;;;;;;;29.67;15.77;;;;;;;;;;4955877;28;20117;-34
2022/04/06 09:55:34;;;;;;;35.13;16.15;;;;;;;;;;4955826;28;20031;-37
2022/04/06 09:58:01;;;;;;;29.95;14.40;;;;;;;;;;4955524;28;20031;-35
2022/04/06 10:00:28;;;;;;;37.08;16.05;;;;;;;;;;4955999;28;20074;-35
2022/04/06 10:02:54;;;;;;;38.10;16.83;;;;;;;;;;4955487;28;20050;-34
2022/04/06 10:05:21;;;;;;;33.15;14.88;;;;;;;;;;4954824;28;20058;-34
2022/04/06 10:07:48;;;;;;;35.15;16.15;;;;;;;;;;4970544;28;20038;-35
2022/04/06 10:10:14;;;;;;;39.67;15.52;;;;;;;;;;4955473;28;20024;-35
2022/04/06 10:12:40;;;;;;;34.55;14.68;;;;;;;;;;4955462;28;20094;-35
2022/04/06 10:15:06;;;;;;;33.10;13.80;;;;;;;;;;4955354;28;20033;-35
2022/04/06 10:17:31;;;;;;;36.08;16.23;;;;;;;;;;4970473;28;20347;-35
2022/04/06 10:20:12;;;;;;;41.42;16.05;;;;;;;;;;4955156;28;20086;-34
2022/04/06 10:22:48;;;;;;;30.40;15.13;;;;;;;;;;4955606;28;20035;-35
2022/04/06 10:25:22;;;;;;;35.95;14.95;;;;;;;;;;4955591;28;20534;-35
2022/04/06 10:27:53;;;;;;;36.65;15.73;;;;;;;;;;4954958;29;20482;-35
2022/04/06 10:30:22;;;;;;;30.52;16.30;;;;;;;;;;4955162;28;20035;-35
2022/04/06 10:32:49;;;;;;;32.45;16.42;;;;;;;;;;4955004;28;20015;-35
2022/04/06 10:35:22;;;;;;;44.88;19.42;;;;;;;;;;4954944;28;20035;-35
2022/04/06 10:37:52;;;;;;;34.42;15.88;;;;;;;;;;4954868;28;20106;-35
2022/04/06 10:40:18;;;;;;;47.15;17.35;;;;;;;;;;4954994;28;20060;-35
2022/04/06 10:42:45;;;;;;;42.75;17.42;;;;;;;;;;4954924;28;20064;-35
2022/04/06 10:45:29;;;;;;;30.08;15.25;;;;;;;;;;4954944;28;20039;-35
2022/04/06 10:48:07;;;;;;;44.80;17.77;;;;;;;;;;4954658;28;20042;-35
2022/04/06 10:50:33;;;;;;;42.55;18.77;;;;;;;;;;4954747;28;20058;-34
2022/04/06 10:53:21;;;;;;;41.90;19.27;;;;;;;;;;4954869;28;20031;-34
2022/04/06 10:55:57;;;;;;;35.85;14.60;;;;;;;;;;4954140;28;20047;-34
2022/04/06 10:58:25;;;;;;;44.10;17.98;;;;;;;;;;4954543;28;20038;-39
2022/04/06 11:01:23;;;;;;;35.88;17.75;;;;;;;;;;4954566;28;20019;-35
2022/04/06 11:04:03;;;;;;;41.10;17.55;;;;;;;;;;4952971;28;20047;-35
2022/04/06 11:06:40;;;;;;;30.42;14.60;;;;;;;;;;4954835;28;20054;-35
2022/04/06 11:12:18;;;;;;;34.70;17.88;;;;;;;;;;4954402;28;20055;-34
2022/04/06 11:14:45;;;;;;;37.38;17.23;;;;;;;;;;4953953;28;20436;-35
2022/04/06 11:17:32;;;;;;;36.10;17.10;;;;;;;;;;4954223;28;20481;-34
2022/04/06 11:19:58;;;;;;;38.72;18.30;;;;;;;;;;4954434;28;20382;-34
2022/04/06 11:22:24;;;;;;;34.80;18.02;;;;;;;;;;4954381;28;20034;-35
2022/04/06 11:24:49;;;;;;;34.10;16.92;;;;;;;;;;4954008;28;20035;-35
2022/04/06 11:27:32;;;;;;;40.78;18.35;;;;;;;;;;4954099;28;20027;-35
2022/04/06 11:30:04;;;;;;;38.53;16.70;;;;;;;;;;4952715;29;20047;-35
2022/04/06 11:32:29;;;;;;;36.38;16.67;;;;;;;;;;4954067;28;20027;-35
2022/04/06 11:35:08;;;;;;;32.47;17.13;;;;;;;;;;4953921;28;20446;-34
2022/04/06 11:37:46;;;;;;;43.25;19.70;;;;;;;;;;4968741;28;20496;-35
2022/04/06 11:40:11;;;;;;;43.75;19.50;;;;;;;;;;4954119;29;20081;-35
2022/04/06 11:42:38;;;;;;;38.42;16.05;;;;;;;;;;4952503;28;20644;-35
2022/04/06 11:45:04;;;;;;;38.85;17.13;;;;;;;;;;4953987;28;20066;-35
2022/04/06 11:47:31;;;;;;;38.90;18.25;;;;;;;;;;4953741;28;20502;-35
2022/04/06 11:49:56;;;;;;;36.05;18.33;;;;;;;;;;4953484;28;20045;-35
2022/04/06 11:52:22;;;;;;;38.10;17.17;;;;;;;;;;4953679;28;20019;-35
2022/04/06 11:54:54;;;;;;;43.47;18.88;;;;;;;;;;4968425;28;20035;-36
2022/04/06 11:57:42;;;;;;;35.50;16.20;;;;;;;;;;4953619;28;20031;-34
2022/04/06 12:00:11;;;;;;;43.58;16.70;;;;;;;;;;4953558;28;20027;-35
2022/04/06 12:03:06;;;;;;;37.03;18.30;;;;;;;;;;4953538;28;20028;-35
2022/04/06 12:05:33;;;;;;;41.65;19.65;;;;;;;;;;4952966;28;20050;-35
2022/04/06 12:08:06;;;;;;;41.42;19.25;;;;;;;;;;4953602;28;20411;-35
2022/04/06 12:10:32;;;;;;;40.45;17.95;;;;;;;;;;4953314;28;20043;-36
2022/04/06 12:12:58;;;;;;;47.75;18.60;;;;;;;;;;4952135;28;20023;-35
2022/04/06 12:15:23;;;;;;;37.35;18.15;;;;;;;;;;4968256;28;20691;-34
2022/04/06 12:17:49;;;;;;;37.22;17.23;;;;;;;;;;4953279;28;20019;-35
2022/04/06 12:20:24;;;;;;;41.47;18.98;;;;;;;;;;4953298;28;20143;-35
2022/04/06 12:23:16;;;;;;;30.23;15.93;;;;;;;;;;4953522;28;20046;-35
2022/04/06 12:25:42;;;;;;;34.45;17.90;;;;;;;;;;4953036;28;20528;-35
2022/04/06 12:28:13;;;;;;;42.45;18.80;;;;;;;;;;4952733;28;20051;-35
2022/04/06 12:30:57;;;;;;;31.83;17.00;;;;;;;;;;4953214;28;20065;-35
2022/04/06 12:33:32;;;;;;;37.60;17.58;;;;;;;;;;4953698;28;20062;-35
2022/04/06 12:36:09;;;;;;;35.40;17.33;;;;;;;;;;4953081;28;20043;-35
2022/04/06 12:38:36;;;;;;;35.85;18.05;;;;;;;;;;4953473;28;20031;-35
2022/04/06 12:41:03;;;;;;;31.98;16.30;;;;;;;;;;4953099;28;20024;-35
2022/04/06 12:43:29;;;;;;;31.23;14.35;;;;;;;;;;4952968;28;20130;-35
2022/04/06 12:45:55;;;;;;;36.65;17.88;;;;;;;;;;4952920;28;20079;-35
2022/04/06 12:48:20;;;;;;;44.85;19.15;;;;;;;;;;4953019;28;20381;-35
2022/04/06 12:50:46;;;;;;;31.52;16.17;;;;;;;;;;4953210;28;20034;-35
2022/04/06 12:53:12;;;;;;;30.60;15.18;;;;;;;;;;4953118;28;20026;-35
2022/04/06 12:55:38;;;;;;;28.88;15.00;;;;;;;;;;4951793;28;20777;-35
2022/04/06 12:58:17;;;;;;;34.95;17.63;;;;;;;;;;4952831;28;20071;-35
2022/04/06 13:00:43;;;;;;;32.67;17.50;;;;;;;;;;4953092;28;20033;-35
2022/04/06 13:03:08;;;;;;;32.20;17.77;;;;;;;;;;4952837;28;20379;-35
2022/04/06 13:05:34;;;;;;;37.33;15.75;;;;;;;;;;4953473;28;20035;-35
2022/04/06 13:08:02;;;;;;;39.17;17.58;;;;;;;;;;4952804;28;20030;-35
2022/04/06 13:10:29;;;;;;;32.00;15.95;;;;;;;;;;4953101;28;20051;-35
2022/04/06 13:12:55;;;;;;;33.92;15.10;;;;;;;;;;4951552;28;20482;-35
2022/04/06 13:15:21;;;;;;;32.70;15.90;;;;;;;;;;4953127;28;20118;-35
2022/04/06 13:17:48;;;;;;;29.42;15.68;;;;;;;;;;4952720;28;20150;-35
2022/04/06 13:20:14;;;;;;;35.05;17.05;;;;;;;;;;4953133;28;20052;-35
2022/04/06 13:22:40;;;;;;;33.10;16.58;;;;;;;;;;4952862;28;20035;-35
2022/04/06 13:25:06;;;;;;;37.25;14.85;;;;;;;;;;4952647;29;20102;-35
2022/04/06 13:27:32;;;;;;;34.05;18.05;;;;;;;;;;4952694;28;20298;-35
2022/04/06 13:30:00;;;;;;;30.10;15.68;;;;;;;;;;4952520;28;20057;-35
2022/04/06 13:32:26;;;;;;;36.42;15.85;;;;;;;;;;4952733;28;20541;-35
2022/04/06 13:34:51;;;;;;;32.03;15.77;;;;;;;;;;4967441;28;20118;-35
2022/04/06 13:37:20;;;;;;;33.67;14.52;;;;;;;;;;4952915;28;20107;-34
2022/04/06 13:39:46;;;;;;;34.65;15.90;;;;;;;;;;4970258;28;20043;-35
2022/04/06 13:42:12;;;;;;;34.25;15.77;;;;;;;;;;4956080;28;20015;-35
2022/04/06 13:44:38;;;;;;;33.88;17.30;;;;;;;;;;4956004;28;20130;-35
2022/04/06 13:47:05;;;;;;;32.70;15.52;;;;;;;;;;4956031;29;20106;-35
2022/04/06 13:49:31;;;;;;;46.25;21.00;;;;;;;;;;4955843;28;20047;-35
2022/04/06 13:51:56;;;;;;;32.25;14.73;;;;;;;;;;4956042;28;20045;-35
2022/04/06 13:54:22;;;;;;;26.83;15.77;;;;;;;;;;4955997;28;20482;-35
2022/04/06 13:56:48;;;;;;;31.05;15.25;;;;;;;;;;4955666;28;20019;-35
2022/04/06 13:59:14;;;;;;;39.85;16.25;;;;;;;;;;4955984;28;20089;-35
2022/04/06 14:01:40;;;;;;;32.08;16.25;;;;;;;;;;4955675;28;20027;-35
2022/04/06 14:04:05;;;;;;;30.55;15.10;;;;;;;;;;4970444;28;20551;-35
2022/04/06 14:06:31;;;;;;;32.50;16.50;;;;;;;;;;4955928;28;20023;-35
2022/04/06 14:08:57;;;;;;;31.20;14.75;;;;;;;;;;4955491;28;20393;-34
2022/04/06 14:11:23;;;;;;;30.65;14.98;;;;;;;;;;4955469;28;20031;-35
2022/04/06 14:13:49;;;;;;;33.10;16.75;;;;;;;;;;4955386;28;20082;-35
2022/04/06 14:16:15;;;;;;;32.40;14.25;;;;;;;;;;4955741;28;20022;-35
2022/04/06 14:18:42;;;;;;;33.17;15.25;;;;;;;;;;4955426;28;20043;-35
2022/04/06 14:21:07;;;;;;;36.50;17.10;;;;;;;;;;4955515;28;20385;-35
2022/04/06 14:23:37;;;;;;;26.88;15.55;;;;;;;;;;4955265;28;20031;-35
2022/04/06 14:26:03;;;;;;;30.23;14.07;;;;;;;;;;4955179;28;20648;-35
2022/04/06 14:28:28;;;;;;;31.90;17.17;;;;;;;;;;4955108;28;20133;-35